Brandon Robinson

Olheiro-Chefe - New York City
3 Dez 2028
Domingo
Processo

Personalidade

Adaptabilidade (8) Ambição (1) Controvérsia (14) Lealdade (4) Pressão (20) Profissionalismo (6) Espírito Esportivo (15) Temperamento (19)

Perfil

Estilo de Treinamento Democrático
Licença Nacional A
Determinação 13
Gestão de Pessoas 6
Motivação 12
Disciplina 11
Satisfação no Trabalho
100%
Fadiga
0%
Função Olheiro-Chefe
Salário 62.9K p/s
Contrato 14.03.2030

Desempenho

Comportamento Bom
Eficácia do Treinamento
55%
Desenvolvimento do Jogador
30%
Prevenção de Lesões
70%
Implementação Tática
50%

Eventos Recentes

Participou de uma reunião de recrutamento agora
Recomendou um alvo de transferência agora
Participou de uma reunião de recrutamento agora
Participou de uma reunião de recrutamento agora
Recomendou um alvo de transferência agora
Recomendou um alvo de transferência 7d atrás
Recomendou um alvo de transferência 7d atrás
Recomendou um alvo de transferência 7d atrás

Monitorando agora

277
Jogador Clube Status Habilidade Confiança Observado Última observação Último voto
Rio Ngumoha Plymouth Argyle Ativo 142 / 146 40% 2 14.11.2028 -
Celías Ingenthron Platense Ativo 113 / 118 40% 1 14.11.2028 -
Joseph Abah Remo Stars Ativo 91 / 79 40% 1 14.11.2028 -
Lucca São Paulo Ativo 124 / 116 40% 3 13.11.2028 -
Álvaro Montoro Botafogo Ativo 134 / 131 40% 2 13.11.2028 -
Nadir Sánchez Central Córdoba SdE Ativo 94 / 103 40% 2 13.11.2028 -
Emmanuel Ndubueze Shooting Stars Ativo 103 / 101 40% 1 12.11.2028 -
Mateus Mané Burnley Ativo 149 / 170 40% 1 11.11.2028 -
Geovany Quenda Watford Ativo 144 / 166 40% 2 10.11.2028 -
Benjamín Villarruel Chikhura Ativo 74 / 83 40% 1 10.11.2028 -
Matías Arias Vélez Ativo 118 / 128 40% 2 09.11.2028 -
Luca Williams-Barnett Walsall Ativo 124 / 123 40% 1 09.11.2028 -
Austine Odongo Shabana Ativo 85 / 91 40% 1 09.11.2028 -
Trey Nyoni Rotherham United Ativo 147 / 167 40% 1 08.11.2028 -
Chimobi Igwilo Rangers International Ativo 86 / 77 40% 1 08.11.2028 -
Tomás Escalante River Plate Ativo 132 / 119 40% 4 07.11.2028 -
Marco Di Cesare Racing Club Ativo 133 / 133 40% 1 07.11.2028 -
Tyrick Mitchell Newcastle United Ativo 163 / 161 40% 1 07.11.2028 -
Francisco Álvarez Nacional Ativo 128 / 129 40% 5 05.11.2028 -
Bryan Ramírez Botafogo Ativo 130 / 121 40% 1 05.11.2028 -
Lucas Morales Nacional Ativo 129 / 118 40% 2 03.11.2028 -
Jonathan De Irastorza Independiente Ativo 130 / 123 40% 4 03.11.2028 -
Aarón Quiros Vélez Ativo 134 / 120 40% 3 03.11.2028 -
Ryan Sessegnon Fulham Ativo 164 / 170 40% 4 30.10.2028 -
Matías Galarza Talleres Ativo 133 / 126 40% 2 30.10.2028 -
Rui Modesto Vancouver Whitecaps Ativo 131 / 137 40% 3 30.10.2028 -
Alhassan Yusuf New England Revolution Ativo 136 / 115 40% 3 29.10.2028 -
Augusto Schott Talleres Ativo 126 / 115 40% 1 28.10.2028 -
Eros Mancuso Fortaleza Ativo 124 / 134 40% 1 28.10.2028 -
Gastón Benedetti Estudiantes Ativo 126 / 117 40% 2 27.10.2028 -
Santiago Fernández Talleres Ativo 126 / 116 40% 2 27.10.2028 -
Tomás Jacob Atlanta United FC Ativo 118 / 121 40% 2 26.10.2028 -
Elías López Aldosivi Ativo 125 / 122 40% 1 26.10.2028 -
Luis Palacios Once Caldas Ativo 128 / 123 40% 3 25.10.2028 -
Tino Livramento Newcastle United Ativo 172 / 155 40% 1 25.10.2028 -
Santiago Longo Belgrano Ativo 129 / 120 40% 4 23.10.2028 -
Bruno Leyes Godoy Cruz Ativo 137 / 129 40% 3 23.10.2028 -
Riku Yamane Yokohama F. Marinos Ativo 147 / 148 40% 1 23.10.2028 -
Kayne Ramsay Atlético Mineiro Ativo 130 / 142 40% 5 22.10.2028 -
Lasse Berg Johnsen Sporting Kansas City Ativo 136 / 114 40% 2 20.10.2028 -
Adrián Sánchez Belgrano Ativo 126 / 124 40% 3 20.10.2028 -
Vicente Poggi Godoy Cruz Ativo 124 / 131 40% 2 20.10.2028 -
Lucas Sanabria LA Galaxy Ativo 134 / 129 40% 2 18.10.2028 -
Agustín Sández Newell's Old Boys Ativo 132 / 132 40% 1 18.10.2028 -
Nicolás Dubersarsky Austin FC Ativo 136 / 130 40% 1 17.10.2028 -
Julián Palacios Envigado Ativo 125 / 119 40% 1 15.10.2028 -
Sven Botman Newcastle United Ativo 171 / 164 40% 2 14.10.2028 -
Lukas Engel Real Salt Lake Ativo 124 / 116 40% 1 13.10.2028 -
Alcides Benítez Belgrano Ativo 116 / 109 40% 2 11.10.2028 -
Yannick Bright Inter Miami CF Ativo 127 / 128 40% 1 11.10.2028 -
Emiliano Álvarez Progreso Ativo 131 / 131 40% 2 09.10.2028 -
Marcos López Gimnasia La Plata Ativo 132 / 134 40% 2 09.10.2028 -
Siro Rosané Estudiantes Ativo 123 / 111 40% 2 08.10.2028 -
Andrés Herrera Columbus Crew Ativo 121 / 113 40% 3 07.10.2028 -
Nicolás Fernández Penarol Ativo 120 / 132 40% 2 06.10.2028 -
Gonzalo Pérez Lanús Ativo 129 / 121 40% 1 05.10.2028 -
Gonzalo Luján Inter Miami CF Ativo 136 / 126 40% 1 05.10.2028 -
Nupe Godstime Bayelsa United Ativo 103 / 81 40% 1 05.10.2028 -
Musa Malik Ikorodu City Ativo 79 / 97 40% 1 05.10.2028 -
Nicolás Ferreira Artigas Ativo 89 / 80 40% 1 04.10.2028 -
Lautaro Díaz San Martín Ativo 89 / 85 40% 1 04.10.2028 -
Artem Smolyakov Los Angeles Football Club Ativo 124 / 128 40% 2 02.10.2028 -
Hamzat Ojediran Colorado Rapids Ativo 133 / 117 40% 1 02.10.2028 -
Malte Amundsen Columbus Crew Ativo 131 / 112 40% 1 10.09.2028 -
Rodrigo Chagas Juventud Ativo 119 / 125 40% 1 10.09.2028 -
Ranko Veselinović Vancouver Whitecaps Ativo 120 / 121 40% 2 07.09.2028 -
Tiago Gordillo San Miguel Ativo 91 / 107 40% 1 07.09.2028 -
Aytor Herrera Mineros de Guayana Ativo 81 / 103 40% 1 07.09.2028 -
Delvin Alfonzo Deportivo Tachira Ativo 127 / 112 40% 1 07.09.2028 -
Loïc Williams Charlotte Football Club Ativo 134 / 138 40% 1 06.09.2028 -
Marcelo Saracchi Houston Dynamo Ativo 134 / 132 40% 2 01.09.2028 -
Cole Bassett Portland Timbers Ativo 124 / 116 40% 1 31.08.2028 -
Japhet Sery Larsen Philadelphia Union Ativo 127 / 119 40% 2 29.08.2028 -
Ignacio Perruzzi San Lorenzo Ativo 129 / 134 40% 1 29.08.2028 -
Felipe Peña Biafore Lanús Ativo 124 / 134 40% 1 29.08.2028 -
Jake Davis Sporting Kansas City Ativo 121 / 122 40% 1 25.08.2028 -
Gastón Martirena Racing Club Ativo 132 / 120 40% 1 23.08.2028 -
Marco Curto Empoli Ativo 127 / 119 40% 2 20.08.2028 -
Antonino Gallo Bari Ativo 144 / 133 40% 3 20.08.2028 -
Antonio Candela Spezia Ativo 131 / 130 40% 1 20.08.2028 -
Eivind Helland AC Milan Ativo 151 / 141 40% 2 19.08.2028 -
Michele Collocolo Cremonese Ativo 139 / 129 40% 1 19.08.2028 -
Samuele Birindelli Monza Ativo 135 / 121 40% 1 19.08.2028 -
Gabriele Zappa Cagliari Ativo 147 / 148 40% 1 17.08.2028 -
Oumar Solet Udinese Ativo 158 / 152 40% 1 17.08.2028 -
Lucas Da Cunha Como Ativo 149 / 135 40% 1 15.08.2028 -
Honest Ahanor Atalanta Ativo 148 / 133 40% 1 14.08.2028 -
Adrián Bernabé Parma Ativo 143 / 133 40% 1 12.08.2028 -
Enrico Delprato Parma Ativo 152 / 162 40% 2 11.08.2028 -
Antoine Hainaut Venezia Ativo 129 / 141 40% 2 11.08.2028 -
Sandi Lovrić Juve Stabia Ativo 146 / 149 40% 1 11.08.2028 -
Raoul Bellanova Atalanta Ativo 161 / 151 40% 2 10.08.2028 -
Matteo Ruggeri Middlesbrough Ativo 167 / 144 40% 3 09.08.2028 -
Jacques Ekomié Wrexham Ativo 135 / 124 40% 1 09.08.2028 -
Lucas Pires Wolverhampton Ativo 138 / 149 40% 1 09.08.2028 -
Max Johnston Derby County Ativo 130 / 141 40% 2 08.08.2028 -
Archie Gray Southampton Ativo 148 / 164 40% 1 08.08.2028 -
Giovanni Leoni Lincoln City Ativo 148 / 141 40% 1 08.08.2028 -
Yasin Ayari Middlesbrough Ativo 145 / 150 40% 4 07.08.2028 -
Quinten Timber Crystal Palace Ativo 154 / 162 40% 4 07.08.2028 -
Jack Elliott Chicago Fire Perdido 109 / 121 69% 1 31.07.2028 -
Babis Kostoulas Oxford United Ativo 149 / 153 40% 1 17.07.2028 -
Jan Bürger Northampton Town Ativo 130 / 138 40% 1 17.07.2028 -
Gabe Forsyth Colchester United Negociando 104 / 133 40% 1 17.07.2028 -
Neco Williams Wrexham Ativo 164 / 143 40% 3 07.07.2028 -
Welington Southampton Ativo 138 / 131 40% 1 07.07.2028 -
Taylor Harwood-Bellis Stockport County Ativo 147 / 147 40% 1 07.07.2028 -
Alfie Doughty Millwall Ativo 144 / 138 40% 4 06.07.2028 -
Patrick Dorgu Bristol City Ativo 157 / 140 40% 1 06.07.2028 -
Lamare Bogarde Reading Ativo 145 / 155 40% 1 06.07.2028 -
Michael Baidoo Plymouth Argyle Ativo 140 / 134 40% 1 04.07.2028 -
Bobby Thomas Grimsby Town Ativo 134 / 143 40% 1 04.07.2028 -
Tristan Crama Wycombe Wanderers Ativo 133 / 117 40% 1 03.07.2028 -
Manuel Ugarte Leicester City Ativo 159 / 145 40% 1 03.07.2028 -
Calvin Ramsay Bristol Rovers Ativo 125 / 136 40% 1 03.06.2028 -
Alex Scott Bournemouth Ativo 167 / 148 40% 3 29.05.2028 -
Ousmane Diomande Nottingham Forest Ativo 164 / 152 40% 2 29.05.2028 -
Andrey Santos Bolton Wanderers Ativo 151 / 146 40% 3 28.05.2028 -
Terry Devlin Portsmouth Ativo 126 / 120 40% 1 28.05.2028 -
Jake O'Brien Everton Ativo 145 / 165 40% 2 27.05.2028 -
Dion Sanderson AFC Wimbledon Ativo 125 / 139 40% 1 26.05.2028 -
Jayden Bogle Leeds United Ativo 136 / 157 40% 2 25.05.2028 -
James Garner Everton Ativo 149 / 172 40% 1 23.05.2028 -
Exequiel Palacios Lazio Ativo 170 / 170 40% 2 22.05.2028 -
Max Bird Birmingham Ativo 148 / 131 40% 1 20.05.2028 -
Óscar Mingueza Crystal Palace Ativo 157 / 138 40% 3 18.05.2028 -
Mats Wieffer Brighton Ativo 162 / 169 40% 1 17.05.2028 -
Thierry Small Preston Ativo 125 / 121 40% 1 13.05.2028 -
Nathan Collins Brentford Ativo 144 / 139 40% 2 07.05.2028 -
Brooke Norton-Cuffy Hull City Ativo 147 / 143 40% 1 07.05.2028 -
Riccardo Calafiori Burnley Ativo 164 / 148 40% 1 06.05.2028 -
Shea Charles Southampton Ativo 151 / 156 40% 2 02.05.2028 -
Herman Johansson FC Dallas Ativo 121 / 118 69% 1 27.03.2028 Aprovar
Jaden Philogene Wolverhampton Ativo 157 / 153 40% 1 06.03.2028 -
Georginio Rutter Brighton Ativo 146 / 153 40% 1 06.03.2028 -
Ismaïla Sarr Crystal Palace Ativo 156 / 157 40% 2 13.02.2028 -
Matt Freese Shakhtar Ativo 140 / 128 40% 8 11.02.2028 -
Mads Hermansen West Ham United Ativo 155 / 138 40% 6 11.02.2028 -
CJ dos Santos San Diego Football Club Ativo 116 / 115 40% 1 11.02.2028 -
Christos Mandas Lazio Ativo 151 / 155 40% 7 10.02.2028 -
Lukáš Horníček Burnley Ativo 149 / 167 40% 8 10.02.2028 -
Aaron Ramsdale Southampton Ativo 157 / 159 40% 5 10.02.2028 -
Lukas Jensen Millwall Ativo 117 / 125 40% 2 09.02.2028 -
Vladan Kovačević Norwich City Ativo 136 / 117 40% 5 09.02.2028 -
Sam Proctor Salford City Ativo 111 / 135 40% 2 09.02.2028 -
Josh Keeley Luton Town Ativo 130 / 151 40% 7 08.02.2028 -
Oliver Dovin Coventry City Ativo 149 / 128 40% 5 08.02.2028 -
Joe Walsh Queens Park Rangers Ativo 107 / 102 40% 2 08.02.2028 -
Sander Berge Derby County Ativo 149 / 158 40% 1 07.02.2028 -
Novak Mićović LA Galaxy Ativo 119 / 112 40% 5 06.02.2028 -
Jack Walton Preston Ativo 122 / 123 40% 3 06.02.2028 -
Anthony Patterson Wrexham Ativo 137 / 154 40% 8 05.02.2028 -
Patrick Schulte Columbus Crew Ativo 123 / 124 40% 10 03.02.2028 -
Radek Vítek Middlesbrough Ativo 151 / 144 40% 11 03.02.2028 -
Dayne St. Clair Inter Miami CF Ativo 133 / 130 40% 10 02.02.2028 -
Alexei Rojas Fedorushchenko Barrow AFC Ativo 120 / 115 40% 6 02.02.2028 -
Caoimhin Kelleher Brentford Ativo 163 / 148 40% 10 01.02.2028 -
Dean Henderson Crystal Palace Ativo 164 / 149 40% 4 01.02.2028 -
James Trafford Leeds United Ativo 141 / 154 40% 8 31.01.2028 -
Balázs Tóth Blackburn Rovers Ativo 130 / 150 40% 4 31.01.2028 -
Luke McNally Bristol City Ativo 141 / 146 40% 3 29.01.2028 -
Robin Roefs Sunderland Ativo 158 / 164 40% 10 29.01.2028 -
Jarrad Branthwaite Everton Ativo 149 / 141 40% 1 29.01.2028 -
John Pulskamp Sporting Kansas City Ativo 128 / 131 40% 3 28.01.2028 -
Luciano Jachfe Nueva Chicago Ativo 120 / 126 40% 10 28.01.2028 -
Fran Vieites Walsall Ativo 123 / 112 40% 4 28.01.2028 -
Filip Marschall Stevenage Ativo 127 / 119 40% 7 26.01.2028 -
Matías Tagliamonte Racing Club Ativo 119 / 122 40% 6 26.01.2028 -
Joe Whitworth Wigan Athletic Ativo 113 / 133 40% 3 26.01.2028 -
Nicolás Sumavil Platense Ativo 112 / 125 40% 5 21.01.2028 -
Yehor Yarmoliuk Brentford Ativo 164 / 158 40% 1 21.01.2028 -
André Wolverhampton Ativo 148 / 133 40% 1 21.01.2028 -
Sol Brynn Bradford City Ativo 144 / 144 40% 8 18.01.2028 -
Will Mannion Charlton Athletic Ativo 125 / 133 40% 2 17.01.2028 -
Renzo Bacchia Racing Ativo 125 / 115 40% 4 16.01.2028 -
Ezequiel Centurión River Plate Ativo 131 / 115 40% 7 16.01.2028 -
Federico Losas Chacarita Juniors Ativo 114 / 127 40% 4 13.01.2028 -
Facundo Mura Inter Miami CF Ativo 134 / 132 40% 2 13.01.2028 -
Nathan Trott Cardiff City Ativo 127 / 134 40% 5 09.01.2028 -
Fabrizio Correa Juventud Ativo 130 / 117 40% 5 08.01.2028 -
Vitaly Janelt Derby County Ativo 136 / 157 40% 1 08.01.2028 -
Juan Moreno La Luz Ativo 115 / 115 40% 7 05.01.2028 -
Sipho Chaine Orlando Pirates Ativo 111 / 111 40% 4 03.01.2028 -
Murphy Cooper Plymouth Argyle Ativo 122 / 117 40% 2 02.01.2028 -
Teboho Mokoena Mamelodi Sundowns Ativo 127 / 140 40% 4 01.01.2028 -
Cristopher Varela Deportivo La Guaira Ativo 124 / 123 40% 5 28.12.2027 -
Luka Gavran Toronto FC Ativo 116 / 109 40% 3 10.12.2027 -
Pontus Dahlberg Lillestrom Ativo 132 / 132 40% 3 08.12.2027 -
Roman Celentano FC Cincinnati Ativo 124 / 117 40% 4 03.12.2027 -
Lautaro Maldonado Instituto Ativo 123 / 123 40% 1 24.11.2027 -
Angus Gunn San Jose Earthquakes Ativo 127 / 129 40% 5 21.11.2027 -
Drake Callender Minnesota United FC Ativo 117 / 110 40% 3 19.11.2027 -
Emiliano González Almagro Ativo 119 / 109 40% 2 18.11.2027 -
Roberto Ramírez Godoy Cruz Ativo 110 / 111 40% 3 09.11.2027 -
Jakub Stolarczyk Middlesbrough Ativo 137 / 150 40% 2 28.10.2027 -
Giorgi Mamardashvili Liverpool Ativo 159 / 167 40% 2 21.10.2027 -
Oliver Petersen Odd Ativo 109 / 124 40% 2 18.10.2027 -
Bart Verbruggen Liverpool Ativo 151 / 150 40% 1 15.10.2027 -
Leopold Wahlstedt Rosenborg Ativo 135 / 117 40% 1 09.10.2027 -
Brandon Austin Brighton Ativo 128 / 147 40% 1 09.10.2027 -
Oscar Hedvall Valerenga Ativo 131 / 100 40% 1 07.10.2027 -
James Pantemis Portland Timbers Ativo 111 / 116 40% 1 18.09.2027 -
Alex Palmer Ipswich Town Ativo 141 / 113 40% 1 06.09.2027 -
Esteban Glellel Quilmes Ativo 111 / 111 40% 1 06.09.2027 -
Tyrese Spicer Orlando City Ativo 98 / 103 69% 1 19.07.2027 Aprovar
Pedro de la Vega Columbus Crew Ativo 133 / 134 66% 1 08.07.2027 Aprovar
Giacomo Raspadori Atalanta Ativo 149 / 129 40% 2 07.07.2027 -
Nicolò Zaniolo Udinese Ativo 155 / 156 40% 1 07.07.2027 -
Stanislav Agkatsev Brentford Ativo 132 / 133 66% 1 14.02.2027 Aprovar
Tyrese Campbell Sheffield United Ativo 127 / 112 40% 1 11.02.2027 -
Jarrod Bowen West Ham United Ativo 160 / 153 40% 1 11.02.2027 -
Callum O'Hare Sheffield United Ativo 136 / 136 40% 1 11.02.2027 -
Wilson Isidor Sunderland Ativo 130 / 121 40% 2 10.02.2027 -
Yousef Salech Cardiff City Ativo 117 / 140 40% 1 09.02.2027 -
Elijah Adebayo Luton Town Ativo 115 / 112 40% 1 07.02.2027 -
Mohamed-Ali Cho Hull City Ativo 128 / 114 40% 1 07.02.2027 -
Zian Flemming Ipswich Town Ativo 133 / 132 40% 1 07.02.2027 -
Steven Bergwijn Al-Ittihad Ativo 141 / 126 40% 9 05.02.2027 -
Martín Ojeda Orlando City Ativo 138 / 120 40% 6 01.02.2027 -
Alex Bangura Middlesbrough Ativo 129 / 133 40% 1 28.01.2027 -
Gianluca Scamacca Atalanta Ativo 156 / 133 40% 1 28.01.2027 -
Egas Cacintura Akhmat Grozny Ativo 129 / 111 40% 1 27.01.2027 -
Ioannis Pittas CSKA Sofia Ativo 120 / 132 40% 2 26.01.2027 -
Petar Musa FC Dallas Ativo 140 / 124 40% 3 23.01.2027 -
Giorgi Kvernadze Frosinone Ativo 130 / 144 40% 1 21.01.2027 -
Wendel Zenit Ativo 141 / 153 40% 2 19.01.2027 -
Keinan Davis Udinese Ativo 139 / 152 40% 1 17.01.2027 -
Wilfried Kanga Al-Fateh Ativo 117 / 117 40% 2 12.01.2027 -
Khuliso Mudau Mamelodi Sundowns Ativo 140 / 118 40% 5 09.01.2027 -
Amir Hossein Hosseinzadeh Tractor Ativo 118 / 118 40% 1 06.01.2027 -
Lassina Traoré Shakhtar Ativo 125 / 111 40% 2 05.01.2027 -
Ammar Ramadan DAC Dunajska Streda Ativo 124 / 120 40% 3 02.01.2027 -
Domagoj Drožđek Tractor Ativo 123 / 141 40% 6 01.01.2027 -
Kévin Denkey FC Cincinnati Ativo 122 / 137 40% 5 28.12.2026 -
Harvey Vale Queens Park Rangers Ativo 135 / 140 40% 2 28.12.2026 -
Gedson Fernandes Spartak Moscow Ativo 134 / 149 40% 1 25.12.2026 -
Vladyslav Dubinchak Dynamo Kyiv Ativo 127 / 131 40% 2 21.12.2026 -
Wessam Abou Ali Columbus Crew Ativo 134 / 139 40% 4 18.12.2026 -
Germán Berterame Inter Miami CF Ativo 126 / 133 40% 3 18.12.2026 -
Jay Stansfield Birmingham Ativo 138 / 137 40% 2 17.12.2026 -
Ollie Watkins Al-Hilal Ativo 142 / 130 40% 1 09.12.2026 -
Tormena Krasnodar Ativo 134 / 143 40% 1 07.12.2026 -
Ivan Oblyakov CSKA Moscow Ativo 136 / 130 40% 1 06.12.2026 -
Morgan Guilavogui Real Salt Lake Ativo 129 / 121 40% 4 05.12.2026 Observar
Ferland Mendy Real Madrid Ativo 154 / 157 40% 2 02.12.2026 -
Dion Lopy Al-Ittihad Ativo 128 / 114 40% 1 02.12.2026 -
Manfred Ugalde Spartak Moscow Ativo 135 / 137 40% 1 29.11.2026 -
Gustavo Mantuan Zenit Ativo 132 / 121 40% 1 29.11.2026 -
Mathys Tel Tottenham Ativo 152 / 163 40% 2 23.11.2026 -
Cheikh Sabaly Vancouver Whitecaps Ativo 123 / 109 40% 1 22.11.2026 -
Erik Botheim Viking Ativo 121 / 114 40% 2 20.11.2026 -
Aubrey Modiba Persepolis Ativo 129 / 125 40% 1 19.11.2026 -
Joao Ortiz Portland Timbers Ativo 125 / 115 40% 1 19.11.2026 -
Maxim De Cuyper Brighton Ativo 140 / 142 40% 3 15.11.2026 -
Álex Centelles Levski Ativo 120 / 113 40% 1 15.11.2026 -
Jesus Ferreira Seattle Sounders Ativo 135 / 131 40% 5 04.11.2026 -
Alexander Aravena Portland Timbers Ativo 122 / 124 40% 2 02.11.2026 -
João Klauss LA Galaxy Ativo 121 / 140 40% 5 01.11.2026 -
Kelvin Yeboah Minnesota United FC Ativo 127 / 128 40% 2 31.10.2026 -
Tadeo Allende Inter Miami CF Ativo 115 / 120 40% 3 30.10.2026 -
Dejan Joveljić Seattle Sounders Ativo 119 / 140 40% 3 23.10.2026 -
Marcel Hartel St. Louis CITY SC Ativo 136 / 133 40% 1 18.10.2026 -
Jordan Lotomba Bloemfontein Celtic Ativo 115 / 118 40% 2 17.10.2026 -
Juan Mosquera Portland Timbers Ativo 124 / 114 40% 1 17.10.2026 -
David Brekalo Orlando City Ativo 124 / 132 40% 2 15.10.2026 Mais informações
Daniel Karlsbakk Sarpsborg 08 Ativo 137 / 110 40% 1 15.10.2026 -
Edu Expósito Espanyol Ativo 143 / 127 40% 1 15.10.2026 -
Timo Werner San Jose Earthquakes Ativo 123 / 120 40% 2 07.10.2026 -
Alexey Miranchuk Atlanta United FC Ativo 141 / 133 40% 2 06.10.2026 -
Femi Seriki Sheffield United Ativo 131 / 107 40% 1 06.10.2026 -
Josh Sargent Toronto FC Ativo 121 / 140 40% 3 04.10.2026 -
Pep Biel Charlotte Football Club Ativo 132 / 123 40% 4 03.10.2026 -
Lewis Morgan Toronto FC Ativo 127 / 114 40% 1 25.09.2026 -
Agustín Anello Philadelphia Union Ativo 124 / 110 40% 1 19.09.2026 -
Duncan McGuire Houston Dynamo Ativo 117 / 122 40% 1 15.09.2026 -
Dániel Gazdag New England Revolution Ativo 133 / 122 40% 1 15.09.2026 -
Eduard Löwen San Jose Earthquakes Ativo 131 / 143 40% 1 10.09.2026 -